Terminal Aerodrome Forecast
Issued by NWS

Home | Current Version | Previous Version | Text Only | Print | Product List | Glossary On
Versions: 1 2 3 4 5 6 7 8 9 10 11 12 13 14 15 16 17 18 19 20
000
FTUS46 KEKA 011025 AAA
TAFCEC
TAF AMD
KCEC 011025Z 0110/0206 VRB03KT 6SM BR FEW006 BKN250
     FM011300 VRB03KT 4SM BR SCT004 SCT250
      TEMPO 0114/0116 2SM BR BKN004
     FM011700 28005KT 6SM HZ SCT007
     FM012200 30009KT P6SM SCT150
     FM020200 18005KT 5SM BR FEW004 SCT009 BKN015=

USA.gov is the U.S. government's official web portal to all federal, state and local government web resources and services.